createdAt,value
2018-05-16T00:00:58.536Z,1.25
2018-05-16T00:06:53.507Z,1.87
2018-05-16T00:12:48.508Z,2.44
2018-05-16T00:18:43.511Z,3.31
2018-05-16T00:24:38.483Z,3.46
2018-05-16T00:30:33.477Z,3.43
2018-05-16T00:36:28.500Z,5.1
2018-05-16T00:42:23.475Z,4.68
2018-05-16T00:48:18.495Z,5.5
2018-05-16T00:54:13.534Z,4.65
2018-05-16T01:00:08.579Z,3.72
2018-05-16T01:06:03.582Z,2.79
2018-05-16T01:11:58.477Z,6.23
2018-05-16T01:17:53.509Z,3.4
2018-05-16T01:23:48.499Z,5
2018-05-16T01:29:43.537Z,2.26
2018-05-16T01:35:38.512Z,3.25
2018-05-16T01:41:33.535Z,5.11
2018-05-16T01:47:28.515Z,4.4
2018-05-16T01:53:23.490Z,2.19
2018-05-16T01:59:18.527Z,3.01
2018-05-16T02:05:13.511Z,2.26
2018-05-16T02:11:08.496Z,6.27
2018-05-16T02:17:03.491Z,7.57
2018-05-16T02:22:58.490Z,3.66
2018-05-16T02:28:53.529Z,4.43
2018-05-16T02:34:48.543Z,4.06
2018-05-16T02:40:43.499Z,3.85
2018-05-16T02:46:38.638Z,2.74
2018-05-16T02:52:33.502Z,2.5
2018-05-16T02:58:28.503Z,4.24
2018-05-16T03:04:23.520Z,5.59
2018-05-16T03:10:18.491Z,3.64
2018-05-16T03:16:13.555Z,3.4
2018-05-16T03:22:08.563Z,4.98
2018-05-16T03:28:03.537Z,6.73
2018-05-16T03:33:58.575Z,2.79
2018-05-16T03:39:53.579Z,2.66
2018-05-16T03:45:48.551Z,6.48
2018-05-16T03:51:43.510Z,5.8
2018-05-16T03:57:38.573Z,7.59
2018-05-16T04:03:33.560Z,9.1
2018-05-16T04:09:28.579Z,27.01
2018-05-16T04:15:23.571Z,57.08
2018-05-16T04:21:18.571Z,68.27
2018-05-16T04:27:13.562Z,65.51
2018-05-16T04:33:08.567Z,67
2018-05-16T04:39:03.563Z,78.55
2018-05-16T04:44:58.585Z,87.24
2018-05-16T04:50:53.628Z,125.86
2018-05-16T04:56:48.587Z,116.67
2018-05-16T05:02:43.599Z,113.79
2018-05-16T05:08:38.602Z,107.91
2018-05-16T05:14:33.538Z,80.76
2018-05-16T05:20:28.555Z,73.07
2018-05-16T05:26:23.643Z,67.19
2018-05-16T05:32:18.557Z,59.62
2018-05-16T05:38:13.540Z,58.2
2018-05-16T05:44:08.552Z,52.8
2018-05-16T05:50:03.598Z,56
2018-05-16T05:55:58.558Z,52.39
2018-05-16T06:01:53.571Z,42.79
2018-05-16T06:07:48.566Z,45.87
2018-05-16T06:13:43.577Z,36.13
2018-05-16T06:19:38.695Z,25.99
2018-05-16T06:25:33.605Z,23.66
2018-05-16T06:31:28.676Z,19.44
2018-05-16T06:37:23.601Z,19.97
2018-05-16T06:43:18.608Z,16.33
2018-05-16T06:49:13.595Z,16.42
2018-05-16T06:55:08.624Z,27.39
2018-05-16T07:01:03.586Z,17.98
2018-05-16T07:06:58.577Z,10.62
2018-05-16T07:12:53.571Z,12.7
2018-05-16T07:18:48.575Z,8.41
2018-05-16T07:24:43.577Z,8.8
2018-05-16T07:30:38.601Z,11.99
2018-05-16T07:36:33.601Z,6.71
2018-05-16T07:42:28.575Z,8.4
2018-05-16T07:48:23.595Z,26.36
2018-05-16T07:54:18.656Z,21.34
2018-05-16T08:00:13.636Z,19.88
2018-05-16T08:06:08.602Z,14.8
2018-05-16T08:12:03.612Z,12.73
2018-05-16T08:17:58.670Z,12.33
2018-05-16T08:23:53.610Z,14.96
2018-05-16T08:29:48.696Z,16.82
2018-05-16T08:35:43.658Z,14.12
2018-05-16T08:41:38.619Z,10.17
2018-05-16T08:47:33.647Z,15.54
2018-05-16T08:53:28.623Z,12.71
2018-05-16T08:59:23.601Z,64.04
2018-05-16T09:05:18.645Z,31.62
2018-05-16T09:11:13.623Z,25.65
2018-05-16T09:17:08.681Z,23.54
2018-05-16T09:23:03.599Z,12.08
2018-05-16T09:28:58.607Z,16.95
2018-05-16T09:34:53.618Z,14.42
2018-05-16T09:40:48.692Z,11.14
2018-05-16T09:46:43.620Z,14.6
2018-05-16T09:52:38.637Z,12.41
2018-05-16T09:58:33.646Z,11.24
2018-05-16T10:04:28.655Z,7.58
2018-05-16T10:10:23.722Z,9.42
2018-05-16T10:16:18.676Z,9.19
2018-05-16T10:22:13.662Z,22.56
2018-05-16T10:28:08.653Z,15.34
2018-05-16T10:34:03.633Z,20.62
2018-05-16T10:39:58.661Z,27.39
2018-05-16T10:45:53.727Z,21.32
2018-05-16T10:51:48.675Z,15.95
2018-05-16T10:57:43.667Z,37.21
2018-05-16T11:03:38.771Z,24.57
2018-05-16T11:09:33.670Z,29.84
2018-05-16T11:15:28.662Z,67.65
2018-05-16T11:21:23.737Z,48.06
2018-05-16T11:27:18.668Z,41.3
2018-05-16T11:33:13.662Z,47.12
2018-05-16T11:39:08.702Z,72.92
2018-05-16T11:45:03.643Z,38.33
2018-05-16T11:50:58.674Z,41.78
2018-05-16T11:56:53.744Z,44.42
2018-05-16T12:02:48.737Z,53.76
2018-05-16T12:08:43.684Z,43.61
2018-05-16T12:14:38.816Z,28.36
2018-05-16T12:20:33.681Z,27.49
2018-05-16T12:26:28.708Z,28.75
2018-05-16T12:32:23.675Z,24.03
2018-05-16T12:38:18.958Z,25.18
2018-05-16T12:44:13.673Z,26.04
2018-05-16T12:50:08.832Z,46.78
2018-05-16T12:56:03.756Z,40.54
2018-05-16T13:01:58.726Z,32.46
2018-05-16T13:07:53.710Z,29.96
2018-05-16T13:13:48.692Z,31.34
2018-05-16T13:19:43.713Z,39.09
2018-05-16T13:25:38.695Z,49.35
2018-05-16T13:31:33.775Z,77.48
2018-05-16T13:37:28.734Z,87.6
2018-05-16T13:43:23.701Z,77.94
2018-05-16T13:49:18.714Z,73.3
2018-05-16T13:55:13.740Z,66.96
2018-05-16T14:01:08.770Z,60.45
2018-05-16T14:07:03.785Z,83.14
2018-05-16T14:12:58.727Z,37.57
2018-05-16T14:18:53.723Z,39.35
2018-05-16T14:24:48.751Z,33.45
2018-05-16T14:30:43.731Z,37.08
2018-05-16T14:36:38.733Z,62.93
2018-05-16T14:42:33.802Z,76.56
2018-05-16T14:48:28.847Z,43.7
2018-05-16T14:54:23.740Z,55.66
2018-05-16T15:00:18.950Z,41.76
2018-05-16T15:06:13.770Z,40.3
2018-05-16T15:12:08.749Z,29.32
2018-05-16T15:18:03.747Z,44.15
2018-05-16T15:23:58.734Z,32.99
2018-05-16T15:29:53.712Z,25.79
2018-05-16T15:35:48.757Z,21.13
2018-05-16T15:41:43.794Z,31.77
2018-05-16T15:47:38.739Z,30.09
2018-05-16T15:53:33.781Z,50.2
2018-05-16T15:59:28.753Z,60.81
2018-05-16T16:05:23.753Z,62.28
2018-05-16T16:11:18.791Z,51.22
2018-05-16T16:17:13.825Z,50.19
2018-05-16T16:23:08.755Z,42.17
2018-05-16T16:29:03.814Z,36.31
2018-05-16T16:34:58.767Z,30.44
2018-05-16T16:40:53.782Z,29.15
2018-05-16T16:46:48.780Z,22.33
2018-05-16T16:52:43.762Z,19.5
2018-05-16T16:58:38.762Z,20.68
2018-05-16T17:04:33.819Z,12.81
2018-05-16T17:10:28.787Z,7.9
2018-05-16T17:16:23.907Z,4.36
2018-05-16T17:22:18.793Z,2.95
2018-05-16T17:28:13.796Z,2.89
2018-05-16T17:34:08.772Z,5.52
2018-05-16T17:40:03.839Z,7.29
2018-05-16T17:45:58.834Z,5.76
2018-05-16T17:51:53.803Z,4.62
2018-05-16T17:57:48.832Z,4.06
2018-05-16T18:03:43.855Z,7.79
2018-05-16T18:09:38.794Z,7.56
2018-05-16T18:15:33.806Z,5.35
2018-05-16T18:21:28.808Z,4.97
2018-05-16T18:27:23.823Z,3.43
2018-05-16T18:33:18.802Z,3.35
2018-05-16T18:39:13.857Z,4.67
2018-05-16T18:45:08.843Z,6.27
2018-05-16T18:51:03.820Z,3.94
2018-05-16T18:56:58.975Z,7.55
2018-05-16T19:02:53.791Z,6.85
2018-05-16T19:08:48.861Z,6.68
2018-05-16T19:14:43.816Z,4.51
2018-05-16T19:20:38.813Z,3.66
2018-05-16T19:26:33.829Z,3.82
2018-05-16T19:32:28.858Z,5.13
2018-05-16T19:38:23.855Z,6.9
2018-05-16T19:44:18.835Z,4.79
2018-05-16T19:50:13.881Z,5.89
2018-05-16T19:56:08.801Z,3.45
2018-05-16T20:02:03.877Z,2.11
2018-05-16T20:07:58.824Z,2.53
2018-05-16T20:13:53.872Z,3.7
2018-05-16T20:19:48.834Z,5.95
2018-05-16T20:25:43.831Z,2.9
2018-05-16T20:31:38.844Z,2.29
2018-05-16T20:37:33.848Z,3.68
2018-05-16T20:43:28.870Z,3.9
2018-05-16T20:49:23.915Z,4.75
2018-05-16T20:55:18.863Z,2.12
2018-05-16T21:01:13.845Z,2.05
2018-05-16T21:07:08.854Z,3.07
2018-05-16T21:13:03.833Z,3.81
2018-05-16T21:18:58.875Z,4.03
2018-05-16T21:24:53.852Z,3.38
2018-05-16T21:30:48.840Z,3.89
2018-05-16T21:36:43.897Z,2.03
2018-05-16T21:42:38.882Z,3.47
2018-05-16T21:48:33.881Z,6.17
2018-05-16T21:54:28.869Z,2.34
2018-05-16T22:00:23.907Z,2.17
2018-05-16T22:06:18.847Z,2.17
2018-05-16T22:12:13.845Z,3.9
2018-05-16T22:18:08.863Z,4.73
2018-05-16T22:24:03.864Z,3.21
2018-05-16T22:29:58.882Z,5.05
2018-05-16T22:35:53.938Z,3.26
2018-05-16T22:41:48.871Z,4.23
2018-05-16T22:47:43.889Z,5.19
2018-05-16T22:53:38.863Z,2.77
2018-05-16T22:59:33.908Z,3.11
2018-05-16T23:05:28.868Z,7.54
2018-05-16T23:11:23.886Z,3.43
2018-05-16T23:17:18.912Z,6.83
2018-05-16T23:23:13.944Z,6.24
2018-05-16T23:29:08.889Z,5.11
2018-05-16T23:35:03.866Z,6.4
2018-05-16T23:40:58.896Z,3.5
2018-05-16T23:46:53.890Z,3.48
2018-05-16T23:52:48.873Z,8
2018-05-16T23:58:43.855Z,4.45
